createdAt,value
2023-08-29T00:00:16.577Z,99672.20
2023-08-29T00:03:08.648Z,99655.20
2023-08-29T00:05:36.738Z,99645.98
2023-08-29T00:08:05.231Z,99646.01
2023-08-29T00:10:33.509Z,99653.64
2023-08-29T00:13:01.528Z,99653.77
2023-08-29T00:15:29.483Z,99635.80
2023-08-29T00:17:57.454Z,99627.86
2023-08-29T00:20:25.518Z,99627.20
2023-08-29T00:22:53.483Z,99617.58
2023-08-29T00:25:21.471Z,99627.52
2023-08-29T00:27:49.297Z,99622.45
2023-08-29T00:30:17.415Z,99613.38
2023-08-29T00:32:46.274Z,99608.15
2023-08-29T00:35:14.430Z,99616.50
2023-08-29T00:37:42.448Z,99609.61
2023-08-29T00:40:11.742Z,99609.58
2023-08-29T00:42:39.910Z,99603.59
2023-08-29T00:45:08.216Z,99596.73
2023-08-29T00:47:36.598Z,99591.94
2023-08-29T00:50:06.943Z,99585.33
2023-08-29T00:52:35.291Z,99580.92
2023-08-29T00:55:03.853Z,99579.06
2023-08-29T00:57:32.139Z,99581.15
2023-08-29T01:00:00.316Z,99581.73
2023-08-29T01:02:28.266Z,99578.05
2023-08-29T01:04:56.245Z,99578.41
2023-08-29T01:07:24.291Z,99572.89
2023-08-29T01:09:52.916Z,99567.79
2023-08-29T01:12:20.888Z,99564.56
2023-08-29T01:14:59.745Z,99561.17
2023-08-29T01:17:35.929Z,99553.92
2023-08-29T01:20:07.606Z,99549.79
2023-08-29T01:23:11.704Z,99544.11
2023-08-29T01:26:14.170Z,99533.48
2023-08-29T01:28:44.980Z,99532.30
2023-08-29T01:31:13.869Z,99525.98
2023-08-29T01:33:42.480Z,99515.98
2023-08-29T01:36:10.525Z,99514.86
2023-08-29T01:38:38.426Z,99506.13
2023-08-29T01:41:06.916Z,99502.13
2023-08-29T01:43:35.853Z,99505.46
2023-08-29T01:46:03.791Z,99498.14
2023-08-29T01:48:32.890Z,99494.99
2023-08-29T01:51:00.920Z,99491.40
2023-08-29T01:53:29.426Z,99490.33
2023-08-29T01:55:59.717Z,99487.52
2023-08-29T01:58:29.010Z,99485.11
2023-08-29T02:01:04.101Z,99478.98
2023-08-29T02:03:38.169Z,99473.37
2023-08-29T02:06:06.120Z,99465.90
2023-08-29T02:08:33.980Z,99459.40
2023-08-29T02:11:01.938Z,99447.66
2023-08-29T02:13:29.871Z,99445.58
2023-08-29T02:15:57.837Z,99434.88
2023-08-29T02:18:26.555Z,99429.34
2023-08-29T02:20:54.596Z,99423.80
2023-08-29T02:23:22.656Z,99426.48
2023-08-29T02:26:05.310Z,99421.79
2023-08-29T02:28:38.461Z,99414.98
2023-08-29T02:31:10.004Z,99405.42
2023-08-29T02:33:39.555Z,99394.69
2023-08-29T02:36:08.178Z,99384.30
2023-08-29T02:38:36.589Z,99375.05
2023-08-29T02:41:11.044Z,99374.77
2023-08-29T02:43:40.297Z,99367.33
2023-08-29T02:46:08.518Z,99352.02
2023-08-29T02:48:36.634Z,99332.48
2023-08-29T02:51:04.663Z,99329.09
2023-08-29T02:53:32.670Z,99326.20
2023-08-29T02:56:00.760Z,99326.52
2023-08-29T02:58:28.877Z,99325.29
2023-08-29T03:01:01.261Z,99326.02
2023-08-29T03:03:29.378Z,99336.98
2023-08-29T03:05:58.344Z,99347.83
2023-08-29T03:08:27.697Z,99375.86
2023-08-29T03:10:56.170Z,99415.32
2023-08-29T03:13:24.360Z,99425.60
2023-08-29T03:15:52.276Z,99426.10
2023-08-29T03:18:20.289Z,99442.18
2023-08-29T03:20:48.396Z,99480.13
2023-08-29T03:23:16.399Z,99520.45
2023-08-29T03:25:44.424Z,99529.95
2023-08-29T03:28:12.364Z,99521.41
2023-08-29T03:30:40.381Z,99509.09
2023-08-29T03:33:08.402Z,99514.88
2023-08-29T03:35:38.237Z,99538.29
2023-08-29T03:38:07.368Z,99539.48
2023-08-29T03:40:35.785Z,99527.06
2023-08-29T03:43:03.904Z,99509.71
2023-08-29T03:45:32.909Z,99496.84
2023-08-29T03:48:02.438Z,99483.58
2023-08-29T03:50:31.724Z,99497.80
2023-08-29T03:52:59.628Z,99497.83
2023-08-29T03:55:27.495Z,99502.50
2023-08-29T03:57:55.782Z,99490.16
2023-08-29T04:00:23.881Z,99492.98
2023-08-29T04:02:52.022Z,99493.70
2023-08-29T04:05:20.151Z,99499.67
2023-08-29T04:07:48.896Z,99492.48
2023-08-29T04:10:17.005Z,99489.41
2023-08-29T04:12:46.164Z,99500.91
2023-08-29T04:15:14.288Z,99502.48
2023-08-29T04:17:42.321Z,99503.30
2023-08-29T04:20:11.651Z,99493.08
2023-08-29T04:22:40.588Z,99485.25
2023-08-29T04:25:10.062Z,99496.84
2023-08-29T04:27:39.090Z,99501.43
2023-08-29T04:30:07.660Z,99489.89
2023-08-29T04:32:38.327Z,99498.21
2023-08-29T04:35:08.067Z,99511.80
2023-08-29T04:37:36.385Z,99515.83
2023-08-29T04:40:08.020Z,99508.45
2023-08-29T04:42:36.084Z,99510.34
2023-08-29T04:45:07.732Z,99509.53
2023-08-29T04:47:36.583Z,99498.44
2023-08-29T04:50:05.074Z,99501.22
2023-08-29T04:52:34.233Z,99506.30
2023-08-29T04:55:02.383Z,99495.85
2023-08-29T04:57:34.422Z,99496.06
2023-08-29T05:00:04.825Z,99496.91
2023-08-29T05:02:33.199Z,99496.74
2023-08-29T05:05:01.252Z,99499.18
2023-08-29T05:07:30.840Z,99496.32
2023-08-29T05:10:01.154Z,99495.63
2023-08-29T05:12:32.394Z,99497.57
2023-08-29T05:15:00.406Z,99498.55
2023-08-29T05:17:28.463Z,99500.95
2023-08-29T05:19:56.454Z,99494.80
2023-08-29T05:22:24.384Z,99481.88
2023-08-29T05:24:52.352Z,99477.54
2023-08-29T05:27:20.259Z,99474.31
2023-08-29T05:29:48.220Z,99472.41
2023-08-29T05:32:16.180Z,99473.71
2023-08-29T05:34:44.425Z,99465.73
2023-08-29T05:37:12.366Z,99457.27
2023-08-29T05:39:40.391Z,99457.70
2023-08-29T05:42:08.429Z,99463.08
2023-08-29T05:44:36.514Z,99457.69
2023-08-29T05:47:04.860Z,99449.12
2023-08-29T05:49:32.972Z,99438.48
2023-08-29T05:52:00.939Z,99436.02
2023-08-29T05:54:29.752Z,99431.69
2023-08-29T05:56:57.713Z,99429.67
2023-08-29T05:59:25.597Z,99435.84
2023-08-29T06:01:53.716Z,99426.35
2023-08-29T06:04:21.729Z,99419.11
2023-08-29T06:06:50.468Z,99418.97
2023-08-29T06:09:19.739Z,99417.48
2023-08-29T06:11:47.700Z,99419.08
2023-08-29T06:14:15.641Z,99413.40
2023-08-29T06:16:43.527Z,99413.52
2023-08-29T06:19:11.658Z,99407.56
2023-08-29T06:21:40.209Z,99398.86
2023-08-29T06:24:08.212Z,99392.06
2023-08-29T06:26:36.512Z,99393.66
2023-08-29T06:29:05.279Z,99400.46
2023-08-29T06:31:33.807Z,99408.52
2023-08-29T06:34:01.843Z,99407.08
2023-08-29T06:36:29.946Z,99400.99
2023-08-29T06:38:57.912Z,99392.89
2023-08-29T06:41:25.856Z,99391.89
2023-08-29T06:43:53.799Z,99390.10
2023-08-29T06:46:21.837Z,99382.81
2023-08-29T06:48:49.706Z,99372.23
2023-08-29T06:51:17.848Z,99375.56
2023-08-29T06:53:45.840Z,99390.40
2023-08-29T06:56:13.815Z,99396.52
2023-08-29T06:58:41.920Z,99392.56
2023-08-29T07:01:09.991Z,99389.52
2023-08-29T07:03:38.299Z,99384.95
2023-08-29T07:06:07.870Z,99379.58
2023-08-29T07:08:35.880Z,99379.35
2023-08-29T07:11:03.820Z,99380.51
2023-08-29T07:13:31.711Z,99378.11
2023-08-29T07:15:59.969Z,99381.63
2023-08-29T07:18:27.968Z,99388.67
2023-08-29T07:20:56.157Z,99390.88
2023-08-29T07:23:24.567Z,99406.17
2023-08-29T07:25:52.536Z,99411.45
2023-08-29T07:28:20.633Z,99413.48
2023-08-29T07:30:51.370Z,99408.98
2023-08-29T07:33:20.862Z,99406.38
2023-08-29T07:35:51.984Z,99410.08
2023-08-29T07:38:20.842Z,99418.65
2023-08-29T07:40:48.835Z,99422.71
2023-08-29T07:43:17.181Z,99427.72
2023-08-29T07:45:46.395Z,99433.80
2023-08-29T07:48:14.393Z,99428.61
2023-08-29T07:50:42.500Z,99429.02
2023-08-29T07:53:10.488Z,99426.11
2023-08-29T07:55:38.708Z,99418.22
2023-08-29T07:58:06.990Z,99415.81
2023-08-29T08:00:35.536Z,99413.18
2023-08-29T08:03:06.776Z,99403.66
2023-08-29T08:05:35.123Z,99408.81
2023-08-29T08:08:03.317Z,99412.83
2023-08-29T08:10:32.867Z,99418.45
2023-08-29T08:13:05.005Z,99427.69
2023-08-29T08:15:32.925Z,99430.41
2023-08-29T08:18:00.832Z,99433.48
2023-08-29T08:20:29.706Z,99428.48
2023-08-29T08:22:57.798Z,99434.83
2023-08-29T08:25:25.907Z,99431.59
2023-08-29T08:27:53.763Z,99424.40
2023-08-29T08:30:23.367Z,99424.16
2023-08-29T08:32:51.537Z,99426.80
2023-08-29T08:35:20.125Z,99426.96
2023-08-29T08:37:47.991Z,99429.95
2023-08-29T08:40:16.298Z,99429.15
2023-08-29T08:42:45.754Z,99426.52
2023-08-29T08:45:14.839Z,99428.47
2023-08-29T08:47:44.166Z,99432.85
2023-08-29T08:50:12.955Z,99441.83
2023-08-29T08:52:43.195Z,99446.99
2023-08-29T08:55:11.555Z,99446.55
2023-08-29T08:57:40.032Z,99446.79
2023-08-29T09:00:09.075Z,99441.39
2023-08-29T09:02:38.977Z,99439.00
2023-08-29T09:05:10.246Z,99433.86
2023-08-29T09:07:42.720Z,99432.79
2023-08-29T09:10:16.877Z,99436.63
2023-08-29T09:12:53.193Z,99444.52
2023-08-29T09:15:21.340Z,99449.81
2023-08-29T09:17:51.094Z,99454.36
2023-08-29T09:20:19.693Z,99460.05
2023-08-29T09:22:48.495Z,99460.90
2023-08-29T09:25:16.495Z,99458.59
2023-08-29T09:27:48.405Z,99456.45
2023-08-29T09:30:18.516Z,99454.87
2023-08-29T09:32:48.780Z,99447.03
2023-08-29T09:35:20.976Z,99442.66
2023-08-29T09:37:54.402Z,99439.42
2023-08-29T09:43:02.068Z,99444.69
2023-08-29T09:45:31.258Z,99440.20
2023-08-29T09:48:08.694Z,99442.69
2023-08-29T09:50:37.822Z,99443.12
2023-08-29T09:53:07.298Z,99445.84
2023-08-29T09:55:44.899Z,99450.58
2023-08-29T09:58:16.369Z,99456.55
2023-08-29T10:00:44.922Z,99459.58
2023-08-29T10:03:12.984Z,99462.19
2023-08-29T10:05:45.450Z,99462.60
2023-08-29T10:08:19.416Z,99460.45
2023-08-29T10:10:48.590Z,99458.19
2023-08-29T10:13:17.195Z,99455.88
2023-08-29T10:15:47.291Z,99445.83
2023-08-29T10:18:16.412Z,99446.27
2023-08-29T10:20:45.891Z,99454.88
2023-08-29T10:23:17.317Z,99463.68
2023-08-29T10:25:46.496Z,99453.58
2023-08-29T10:28:16.079Z,99442.19
2023-08-29T10:30:49.019Z,99440.64
2023-08-29T10:33:17.425Z,99433.79
2023-08-29T10:35:49.145Z,99424.65
2023-08-29T10:38:18.221Z,99417.79
2023-08-29T10:40:47.515Z,99416.84
2023-08-29T10:43:30.796Z,99417.90
2023-08-29T10:46:16.876Z,99423.05
2023-08-29T10:48:47.762Z,99424.92
2023-08-29T10:51:33.374Z,99427.71
2023-08-29T10:54:07.857Z,99426.36
2023-08-29T10:56:44.280Z,99426.84
2023-08-29T10:59:36.461Z,99436.50
2023-08-29T11:02:33.158Z,99447.46
2023-08-29T11:05:04.556Z,99453.27
2023-08-29T11:07:34.072Z,99449.05
2023-08-29T11:10:31.461Z,99436.73
2023-08-29T11:13:13.557Z,99423.81
2023-08-29T11:15:59.835Z,99415.89
2023-08-29T11:18:34.333Z,99410.14
2023-08-29T11:21:10.425Z,99405.89
2023-08-29T11:23:42.434Z,99405.36
2023-08-29T11:26:12.088Z,99405.27
2023-08-29T11:28:46.534Z,99408.32
2023-08-29T11:31:14.968Z,99405.47
2023-08-29T11:33:47.995Z,99407.56
2023-08-29T11:36:17.217Z,99413.77
2023-08-29T11:38:45.495Z,99418.07
2023-08-29T11:41:29.601Z,99412.23
2023-08-29T11:44:59.205Z,99421.00
2023-08-29T11:46:49.978Z,99438.85
2023-08-29T11:49:17.998Z,99448.28
2023-08-29T11:51:47.222Z,99459.83
2023-08-29T11:54:57.266Z,99461.80
2023-08-29T11:57:29.084Z,99455.73
2023-08-29T11:59:58.367Z,99447.05
2023-08-29T12:02:27.573Z,99442.71
2023-08-29T12:04:57.503Z,99443.77
2023-08-29T12:07:32.822Z,99444.59
2023-08-29T12:10:32.001Z,99445.66
2023-08-29T12:13:12.768Z,99443.46
2023-08-29T12:15:44.359Z,99438.74
2023-08-29T12:18:26.354Z,99440.77
2023-08-29T12:21:19.143Z,99444.36
2023-08-29T12:23:47.328Z,99449.29
2023-08-29T12:26:18.584Z,99451.09
2023-08-29T12:28:46.688Z,99454.06
2023-08-29T12:31:14.683Z,99451.40
2023-08-29T12:33:42.854Z,99458.74
2023-08-29T12:36:10.806Z,99462.02
2023-08-29T12:38:39.034Z,99461.91
2023-08-29T12:41:07.257Z,99457.34
2023-08-29T12:43:35.372Z,99461.30
2023-08-29T12:46:03.611Z,99469.27
2023-08-29T12:48:31.623Z,99473.55
2023-08-29T12:50:59.574Z,99479.36
2023-08-29T12:53:28.589Z,99481.58
2023-08-29T12:55:56.689Z,99485.14
2023-08-29T12:58:24.761Z,99485.58
2023-08-29T13:00:52.849Z,99480.90
2023-08-29T13:03:20.882Z,99479.77
2023-08-29T13:05:49.245Z,99472.79
2023-08-29T13:08:19.116Z,99469.88
2023-08-29T13:10:47.370Z,99467.72
2023-08-29T13:13:15.596Z,99467.85
2023-08-29T13:15:51.071Z,99474.45
2023-08-29T13:18:20.117Z,99480.59
2023-08-29T13:20:48.380Z,99484.52
2023-08-29T13:23:16.627Z,99483.10
2023-08-29T13:25:44.906Z,99487.10
2023-08-29T13:28:12.972Z,99483.65
2023-08-29T13:30:41.055Z,99491.14
2023-08-29T13:33:09.486Z,99484.32
2023-08-29T13:35:38.274Z,99481.55
2023-08-29T13:38:08.312Z,99481.29
2023-08-29T13:40:36.897Z,99477.88
2023-08-29T13:43:05.050Z,99482.96
2023-08-29T13:45:33.064Z,99480.04
2023-08-29T13:48:01.355Z,99474.00
2023-08-29T13:50:29.403Z,99471.52
2023-08-29T13:52:59.550Z,99465.74
2023-08-29T13:55:27.840Z,99459.63
2023-08-29T13:57:55.911Z,99458.80
2023-08-29T14:00:23.921Z,99449.67
2023-08-29T14:02:53.629Z,99447.38
2023-08-29T14:05:21.788Z,99452.48
2023-08-29T14:07:49.792Z,99459.27
2023-08-29T14:10:18.582Z,99458.25
2023-08-29T14:12:46.874Z,99462.81
2023-08-29T14:15:15.713Z,99461.66
2023-08-29T14:17:43.808Z,99457.36
2023-08-29T14:20:12.197Z,99456.35
2023-08-29T14:22:40.368Z,99452.90
2023-08-29T14:25:08.743Z,99460.41
2023-08-29T14:27:40.761Z,99470.52
2023-08-29T14:30:09.069Z,99482.04
2023-08-29T14:32:37.041Z,99485.41
2023-08-29T14:35:05.530Z,99484.59
2023-08-29T14:37:33.683Z,99487.34
2023-08-29T14:40:01.793Z,99487.33
2023-08-29T14:42:29.736Z,99485.70
2023-08-29T14:44:58.340Z,99484.05
2023-08-29T14:47:26.635Z,99488.41
2023-08-29T14:49:55.206Z,99492.55
2023-08-29T14:52:23.305Z,99486.42
2023-08-29T14:54:53.839Z,99488.50
2023-08-29T14:57:23.030Z,99495.09
2023-08-29T14:59:50.881Z,99497.81
2023-08-29T15:02:18.935Z,99492.20
2023-08-29T15:04:48.606Z,99488.75
2023-08-29T15:07:17.188Z,99487.77
2023-08-29T15:09:45.552Z,99485.27
2023-08-29T15:12:13.668Z,99483.38
2023-08-29T15:14:41.635Z,99479.54
2023-08-29T15:17:09.605Z,99481.91
2023-08-29T15:19:40.149Z,99484.67
2023-08-29T15:22:08.874Z,99485.63
2023-08-29T15:24:36.836Z,99487.36
2023-08-29T15:27:05.536Z,99491.63
2023-08-29T15:29:33.492Z,99491.92
2023-08-29T15:32:01.505Z,99487.91
2023-08-29T15:34:32.067Z,99486.84
2023-08-29T15:37:02.068Z,99484.91
2023-08-29T15:39:33.991Z,99483.67
2023-08-29T15:42:06.155Z,99481.77
2023-08-29T15:44:40.258Z,99475.83
2023-08-29T15:47:10.599Z,99480.89
2023-08-29T15:49:39.306Z,99477.25
2023-08-29T15:52:07.247Z,99475.05
2023-08-29T15:54:35.221Z,99469.61
2023-08-29T15:57:04.247Z,99470.83
2023-08-29T15:59:32.336Z,99472.73
2023-08-29T16:02:00.567Z,99480.06
2023-08-29T16:04:28.598Z,99481.98
2023-08-29T16:06:56.473Z,99477.27
2023-08-29T16:09:24.561Z,99471.80
2023-08-29T16:11:52.593Z,99472.53
2023-08-29T16:14:20.468Z,99466.76
2023-08-29T16:16:48.395Z,99456.21
2023-08-29T16:19:17.033Z,99456.86
2023-08-29T16:21:45.028Z,99462.40
2023-08-29T16:24:12.980Z,99472.48
2023-08-29T16:26:40.960Z,99471.15
2023-08-29T16:29:10.505Z,99474.02
2023-08-29T16:31:38.488Z,99473.49
2023-08-29T16:34:09.008Z,99478.77
2023-08-29T16:36:36.990Z,99477.48
2023-08-29T16:39:06.214Z,99478.75
2023-08-29T16:41:34.401Z,99471.88
2023-08-29T16:44:02.610Z,99474.71
2023-08-29T16:46:31.364Z,99463.06
2023-08-29T16:49:00.013Z,99458.84
2023-08-29T16:51:28.056Z,99451.36
2023-08-29T16:53:55.949Z,99444.95
2023-08-29T16:56:24.148Z,99435.13
2023-08-29T16:58:52.038Z,99422.91
2023-08-29T17:01:20.206Z,99423.64
2023-08-29T17:03:48.499Z,99432.48
2023-08-29T17:06:16.569Z,99446.70
2023-08-29T17:08:44.572Z,99458.59
2023-08-29T17:11:12.754Z,99471.95
2023-08-29T17:13:40.721Z,99486.80
2023-08-29T17:16:10.803Z,99498.98
2023-08-29T17:18:42.031Z,99505.72
2023-08-29T17:21:10.148Z,99504.43
2023-08-29T17:23:38.454Z,99505.14
2023-08-29T17:26:06.791Z,99493.11
2023-08-29T17:28:34.939Z,99494.26
2023-08-29T17:31:02.972Z,99511.02
2023-08-29T17:33:31.034Z,99524.52
2023-08-29T17:35:59.006Z,99530.14
2023-08-29T17:38:26.940Z,99531.14
2023-08-29T17:40:59.131Z,99536.33
2023-08-29T17:43:27.617Z,99534.29
2023-08-29T17:45:57.658Z,99529.91
2023-08-29T17:48:28.471Z,99524.57
2023-08-29T17:51:00.154Z,99523.48
2023-08-29T17:53:28.627Z,99517.19
2023-08-29T17:55:56.922Z,99514.69
2023-08-29T17:58:25.976Z,99509.05
2023-08-29T18:00:55.614Z,99518.52
2023-08-29T18:03:23.800Z,99517.58
2023-08-29T18:05:53.841Z,99519.45
2023-08-29T18:08:25.605Z,99524.23
2023-08-29T18:10:55.041Z,99532.83
2023-08-29T18:13:23.193Z,99535.96
2023-08-29T18:15:52.136Z,99529.84
2023-08-29T18:18:32.500Z,99520.93
2023-08-29T18:21:00.506Z,99516.70
2023-08-29T18:23:28.954Z,99509.80
2023-08-29T18:25:59.633Z,99507.52
2023-08-29T18:28:27.739Z,99517.22
2023-08-29T18:30:59.142Z,99513.09
2023-08-29T18:33:28.763Z,99500.21
2023-08-29T18:35:57.640Z,99500.44
2023-08-29T18:38:25.924Z,99503.85
2023-08-29T18:40:56.675Z,99493.52
2023-08-29T18:43:25.753Z,99482.23
2023-08-29T18:45:53.845Z,99483.82
2023-08-29T18:48:21.980Z,99475.66
2023-08-29T18:50:52.327Z,99468.03
2023-08-29T18:53:21.270Z,99456.64
2023-08-29T18:55:49.507Z,99452.34
2023-08-29T18:58:17.526Z,99446.79
2023-08-29T19:00:48.926Z,99454.92
2023-08-29T19:03:20.133Z,99466.54
2023-08-29T19:05:48.358Z,99469.40
2023-08-29T19:08:18.691Z,99464.80
2023-08-29T19:10:47.848Z,99455.88
2023-08-29T19:13:16.016Z,99447.34
2023-08-29T19:15:44.266Z,99445.02
2023-08-29T19:18:15.086Z,99437.60
2023-08-29T19:20:44.019Z,99434.25
2023-08-29T19:23:13.357Z,99438.52
2023-08-29T19:25:42.338Z,99453.70
2023-08-29T19:28:11.508Z,99462.77
2023-08-29T19:30:39.921Z,99463.23
2023-08-29T19:33:12.410Z,99454.19
2023-08-29T19:35:41.618Z,99444.36
2023-08-29T19:38:11.821Z,99442.04
2023-08-29T19:40:40.370Z,99445.00
2023-08-29T19:43:10.724Z,99440.28
2023-08-29T19:45:42.101Z,99442.89
2023-08-29T19:48:11.886Z,99449.89
2023-08-29T19:50:41.200Z,99450.74
2023-08-29T19:53:10.127Z,99459.86
2023-08-29T19:55:38.399Z,99462.96
2023-08-29T19:58:06.950Z,99461.05
2023-08-29T20:00:35.909Z,99461.66
2023-08-29T20:03:05.578Z,99463.02
2023-08-29T20:05:39.677Z,99467.58
2023-08-29T20:08:15.238Z,99464.42
2023-08-29T20:10:46.866Z,99474.10
2023-08-29T20:13:19.000Z,99474.65
2023-08-29T20:15:47.570Z,99476.79
2023-08-29T20:18:18.829Z,99471.73
2023-08-29T20:20:48.035Z,99475.23
2023-08-29T20:23:19.801Z,99474.45
2023-08-29T20:25:48.836Z,99468.83
2023-08-29T20:28:17.838Z,99460.23
2023-08-29T20:30:47.230Z,99449.77
2023-08-29T20:33:15.750Z,99434.50
2023-08-29T20:35:45.099Z,99429.48
2023-08-29T20:38:17.521Z,99441.94
2023-08-29T20:40:46.341Z,99454.10
2023-08-29T20:43:21.430Z,99463.73
2023-08-29T20:45:58.185Z,99459.52
2023-08-29T20:48:53.959Z,99455.22
2023-08-29T20:51:22.768Z,99453.11
2023-08-29T20:53:50.880Z,99441.59
2023-08-29T20:56:18.941Z,99423.25
2023-08-29T20:58:47.266Z,99415.17
2023-08-29T21:01:15.724Z,99413.36
2023-08-29T21:03:44.253Z,99409.05
2023-08-29T21:06:13.298Z,99415.23
2023-08-29T21:08:57.052Z,99423.61
2023-08-29T21:11:29.975Z,99424.39
2023-08-29T21:14:04.993Z,99430.08
2023-08-29T21:16:42.200Z,99445.97
2023-08-29T21:19:10.649Z,99450.30
2023-08-29T21:21:38.891Z,99445.14
2023-08-29T21:24:07.245Z,99442.64
2023-08-29T21:26:35.340Z,99456.83
2023-08-29T21:29:03.329Z,99475.45
2023-08-29T21:31:31.325Z,99494.35
2023-08-29T21:33:59.411Z,99499.23
2023-08-29T21:36:27.560Z,99502.30
2023-08-29T21:38:55.721Z,99504.98
2023-08-29T21:41:23.851Z,99499.35
2023-08-29T21:43:52.861Z,99487.38
2023-08-29T21:46:20.887Z,99481.52
2023-08-29T21:48:48.917Z,99477.39
2023-08-29T21:51:21.999Z,99477.55
2023-08-29T21:53:50.251Z,99482.84
2023-08-29T21:56:20.149Z,99485.20
2023-08-29T21:58:48.111Z,99479.04
2023-08-29T22:01:16.134Z,99473.27
2023-08-29T22:03:44.188Z,99474.96
2023-08-29T22:06:12.301Z,99481.91
2023-08-29T22:08:40.720Z,99489.41
2023-08-29T22:11:09.360Z,99498.98
2023-08-29T22:13:37.586Z,99513.11
2023-08-29T22:16:05.907Z,99522.27
2023-08-29T22:18:33.939Z,99533.83
2023-08-29T22:21:04.133Z,99532.89
2023-08-29T22:23:33.765Z,99531.84
2023-08-29T22:26:05.863Z,99529.06
2023-08-29T22:28:34.150Z,99528.72
2023-08-29T22:31:02.187Z,99528.56
2023-08-29T22:33:32.389Z,99526.39
2023-08-29T22:36:00.797Z,99518.65
2023-08-29T22:38:29.389Z,99507.33
2023-08-29T22:41:21.231Z,99505.34
2023-08-29T22:43:57.044Z,99499.23
2023-08-29T22:46:25.028Z,99491.04
2023-08-29T22:48:53.004Z,99482.39
2023-08-29T22:51:21.459Z,99471.39
2023-08-29T22:53:49.485Z,99466.61
2023-08-29T22:56:18.259Z,99462.89
2023-08-29T22:58:46.768Z,99468.13
2023-08-29T23:01:14.925Z,99473.54
2023-08-29T23:03:42.906Z,99469.97
2023-08-29T23:06:10.992Z,99461.30
2023-08-29T23:08:39.033Z,99448.94
2023-08-29T23:11:08.057Z,99445.37
2023-08-29T23:13:36.011Z,99442.50
2023-08-29T23:16:05.392Z,99445.23
2023-08-29T23:18:34.933Z,99455.16
2023-08-29T23:21:02.897Z,99458.89
2023-08-29T23:23:30.787Z,99442.90
2023-08-29T23:26:01.968Z,99419.97
2023-08-29T23:28:30.575Z,99411.14
2023-08-29T23:30:58.562Z,99414.51
2023-08-29T23:33:26.604Z,99415.90
2023-08-29T23:35:54.637Z,99420.38
2023-08-29T23:38:22.661Z,99420.23
2023-08-29T23:40:51.547Z,99422.80
2023-08-29T23:43:19.651Z,99424.95
2023-08-29T23:45:47.630Z,99425.33
2023-08-29T23:48:15.679Z,99425.11
2023-08-29T23:50:43.601Z,99429.61
2023-08-29T23:53:11.551Z,99429.27
2023-08-29T23:55:39.696Z,99427.52
2023-08-29T23:58:07.888Z,99424.57
